Latest Weather Observations for South Channel Island

IDV60901

Issued at 9:01 pm EST Saturday 25 June 2022 (issued every 10 minutes, with the page automatically refreshed every 10 minutes)

About weather observations | Map of Melbourne area stations | Latest observations for Melbourne area | Other Formats
Station Details ID: 086344 Name: SOUTH CHANNEL ISLAND Lat: -38.31 Lon: 144.80 Height: 9.0 m
Data from the previous 72 hours. | See also: Recent months at South Channel Island
Date/Time
EST
Temp
°C
App
Temp
°C
Dew
Point
°C
Rel
Hum
%
Delta-T
°C
Wind Press
QNH
hPa
Press
MSL
hPa
Rain since
9am
mm
Dir  Spd
km/h
Gust
km/h
Spd
kts
Gust
kts
25/08:30pm - - - - - NNW 32 37 17 20 - - -
25/08:00pm - - - - - NNW 30 35 16 19 - - -
25/07:30pm - - - - - N 28 33 15 18 - - -
25/07:00pm - - - - - N 37 43 20 23 - - -
25/06:30pm - - - - - NNW 41 54 22 29 - - -
25/06:00pm - - - - - NNW 35 41 19 22 - - -
25/05:30pm - - - - - NNW 32 35 17 19 - - -
25/05:00pm - - - - - NW 32 37 17 20 - - -
25/04:30pm - - - - - NW 39 43 21 23 - - -
25/04:00pm - - - - - NW 30 33 16 18 - - -
25/03:30pm - - - - - NNW 30 35 16 19 - - -
25/03:00pm - - - - - NW 33 39 18 21 - - -
25/02:30pm - - - - - NW 32 33 17 18 - - -
25/02:00pm - - - - - NW 24 30 13 16 - - -
25/01:30pm - - - - - NW 32 35 17 19 - - -
25/01:00pm - - - - - NW 35 43 19 23 - - -
25/12:30pm - - - - - NW 39 46 21 25 - - -
25/12:00pm - - - - - NW 43 52 23 28 - - -
25/11:30am - - - - - NW 35 43 19 23 - - -
25/11:00am - - - - - NNW 33 41 18 22 - - -
25/10:30am - - - - - NNW 35 39 19 21 - - -
25/10:00am - - - - - NNW 37 41 20 22 - - -
25/09:30am - - - - - NNW 37 43 20 23 - - -
25/09:00am - - - - - NNW 32 37 17 20 - - -
25/08:30am - - - - - NNW 30 33 16 18 - - -
25/08:00am - - - - - NNW 30 33 16 18 - - -
25/07:30am - - - - - NNW 32 35 17 19 - - -
25/07:00am - - - - - NNW 30 35 16 19 - - -
25/06:30am - - - - - NNW 28 33 15 18 - - -
25/06:00am - - - - - NNW 35 41 19 22 - - -
25/05:30am - - - - - NNW 35 41 19 22 - - -
25/05:00am - - - - - NNW 37 41 20 22 - - -
25/04:30am - - - - - NNW 35 41 19 22 - - -
25/04:00am - - - - - NNW 35 39 19 21 - - -
25/03:30am - - - - - NNW 35 39 19 21 - - -
25/03:00am - - - - - NNW 30 33 16 18 - - -
25/02:30am - - - - - NNW 30 33 16 18 - - -
25/02:00am - - - - - NW 26 32 14 17 - - -
25/01:30am - - - - - WNW 30 35 16 19 - - -
25/01:00am - - - - - WNW 33 39 18 21 - - -
25/12:30am - - - - - WNW 33 39 18 21 - - -
25/12:00am - - - - - NW 24 28 13 15 - - -
 
Date/Time
EST
Temp
°C
App
Temp
°C
Dew
Point
°C
Rel
Hum
%
Delta-T
°C
Wind Press
QNH
hPa
Press
MSL
hPa
Rain since
9am
mm
Dir  Spd
km/h
Gust
km/h
Spd
kts
Gust
kts
24/11:30pm - - - - - NW 28 35 15 19 - - -
24/11:00pm - - - - - NW 30 33 16 18 - - -
24/10:30pm - - - - - WNW 33 41 18 22 - - -
24/10:00pm - - - - - NW 26 33 14 18 - - -
24/09:30pm - - - - - WNW 28 30 15 16 - - -
24/09:00pm - - - - - NW 30 33 16 18 - - -
24/08:30pm - - - - - WNW 22 28 12 15 - - -
24/08:00pm - - - - - NW 26 30 14 16 - - -
24/07:30pm - - - - - NW 26 30 14 16 - - -
24/07:00pm - - - - - WNW 30 33 16 18 - - -
24/06:30pm - - - - - WNW 22 26 12 14 - - -
24/06:00pm - - - - - W 22 28 12 15 - - -
24/05:30pm - - - - - W 26 32 14 17 - - -
24/05:00pm - - - - - W 28 33 15 18 - - -
24/04:30pm - - - - - W 30 35 16 19 - - -
24/04:00pm - - - - - W 22 26 12 14 - - -
24/03:30pm - - - - - WNW 22 26 12 14 - - -
24/03:00pm - - - - - NW 28 32 15 17 - - -
24/02:30pm - - - - - WNW 30 33 16 18 - - -
24/02:00pm - - - - - W 33 39 18 21 - - -
24/01:30pm - - - - - W 28 33 15 18 - - -
24/01:00pm - - - - - W 28 32 15 17 - - -
24/12:30pm - - - - - W 22 26 12 14 - - -
24/12:00pm - - - - - W 33 50 18 27 - - -
24/11:55am - - - - - W 30 50 16 27 - - -
24/11:30am - - - - - WNW 30 35 16 19 - - -
24/11:00am - - - - - WNW 30 37 16 20 - - -
24/10:30am - - - - - WNW 32 37 17 20 - - -
24/10:00am - - - - - WNW 35 41 19 22 - - -
24/09:30am - - - - - WNW 33 39 18 21 - - -
24/09:00am - - - - - WNW 35 41 19 22 - - -
24/08:30am - - - - - NW 32 35 17 19 - - -
24/08:00am - - - - - NW 32 37 17 20 - - -
24/07:30am - - - - - NW 30 33 16 18 - - -
24/07:00am - - - - - NW 32 35 17 19 - - -
24/06:30am - - - - - WNW 26 30 14 16 - - -
24/06:00am - - - - - WNW 15 17 8 9 - - -
24/05:30am - - - - - NW 19 22 10 12 - - -
24/05:00am - - - - - NW 22 26 12 14 - - -
24/04:30am - - - - - NW 26 32 14 17 - - -
24/04:00am - - - - - NNW 32 35 17 19 - - -
24/03:30am - - - - - N 33 35 18 19 - - -
24/03:00am - - - - - N 33 35 18 19 - - -
24/02:30am - - - - - N 35 41 19 22 - - -
24/02:00am - - - - - N 39 43 21 23 - - -
24/01:30am - - - - - N 41 48 22 26 - - -
24/01:00am - - - - - N 52 57 28 31 - - -
24/12:30am - - - - - N 48 54 26 29 - - -
24/12:00am - - - - - N 46 54 25 29 - - -
 
Date/Time
EST
Temp
°C
App
Temp
°C
Dew
Point
°C
Rel
Hum
%
Delta-T
°C
Wind Press
QNH
hPa
Press
MSL
hPa
Rain since
9am
mm
Dir  Spd
km/h
Gust
km/h
Spd
kts
Gust
kts
23/11:30pm - - - - - N 46 52 25 28 - - -
23/11:00pm - - - - - N 46 54 25 29 - - -
23/10:30pm - - - - - N 50 56 27 30 - - -
23/10:00pm - - - - - N 50 57 27 31 - - -
23/09:30pm - - - - - N 50 57 27 31 - - -
23/09:00pm - - - - - N 46 52 25 28 - - -
23/08:30pm - - - - - N 43 50 23 27 - - -
23/08:00pm - - - - - N 46 52 25 28 - - -
23/07:30pm - - - - - N 43 50 23 27 - - -
23/07:00pm - - - - - N 39 46 21 25 - - -
23/06:30pm - - - - - NNW 37 41 20 22 - - -
23/06:00pm - - - - - NNW 33 39 18 21 - - -
23/05:30pm - - - - - N 22 26 12 14 - - -
23/05:00pm - - - - - N 26 30 14 16 - - -
23/04:30pm - - - - - N 30 35 16 19 - - -
23/04:00pm - - - - - NNW 35 41 19 22 - - -
23/03:30pm - - - - - NNW 35 39 19 21 - - -
23/03:00pm - - - - - NNW 39 48 21 26 - - -
23/02:30pm - - - - - NNW 37 41 20 22 - - -
23/02:00pm - - - - - NNW 37 48 20 26 - - -
23/01:30pm - - - - - N 37 41 20 22 - - -
23/01:00pm - - - - - N 41 44 22 24 - - -
23/12:30pm - - - - - N 33 39 18 21 - - -
23/12:00pm - - - - - N 26 28 14 15 - - -
23/11:30am - - - - - N 26 30 14 16 - - -
23/11:00am - - - - - N 32 35 17 19 - - -
23/10:30am - - - - - N 30 33 16 18 - - -
23/10:00am - - - - - N 28 32 15 17 - - -
23/09:30am - - - - - N 30 33 16 18 - - -
23/09:00am - - - - - N 28 32 15 17 - - -
23/08:30am - - - - - NNW 32 33 17 18 - - -
23/08:00am - - - - - NNW 28 32 15 17 - - -
23/07:30am - - - - - NNW 28 32 15 17 - - -
23/07:00am - - - - - NNW 30 33 16 18 - - -
23/06:30am - - - - - NNW 32 37 17 20 - - -
23/06:00am - - - - - NNW 32 35 17 19 - - -
23/05:30am - - - - - NNW 32 35 17 19 - - -
23/05:00am - - - - - NNW 33 37 18 20 - - -
23/04:30am - - - - - N 26 30 14 16 - - -
23/04:00am - - - - - N 30 32 16 17 - - -
23/03:30am - - - - - N 35 41 19 22 - - -
23/03:00am - - - - - N 28 30 15 16 - - -
23/02:30am - - - - - N 28 32 15 17 - - -
23/02:00am - - - - - N 26 30 14 16 - - -
23/01:30am - - - - - N 28 32 15 17 - - -
23/01:00am - - - - - N 32 35 17 19 - - -
23/12:30am - - - - - N 33 39 18 21 - - -
23/12:00am - - - - - N 26 30 14 16 - - -
 
Date/Time
EST
Temp
°C
App
Temp
°C
Dew
Point
°C
Rel
Hum
%
Delta-T
°C
Wind Press
QNH
hPa
Press
MSL
hPa
Rain since
9am
mm
Dir  Spd
km/h
Gust
km/h
Spd
kts
Gust
kts
22/11:30pm - - - - - N 32 35 17 19 - - -
22/11:00pm - - - - - N 33 39 18 21 - - -
22/10:30pm - - - - - N 32 33 17 18 - - -
22/10:00pm - - - - - N 32 35 17 19 - - -
22/09:30pm - - - - - N 30 32 16 17 - - -

Latest Capital City Observations: Canberra | Sydney | Melbourne | Brisbane | Adelaide | Perth | Hobart | Darwin

Other formats

Comma delimited format used in spreadsheet applications
http://www.bom.gov.au/fwo/IDV60901/IDV60901.94853.axf

JavaScript Object Notation format (JSON) in row-major order
http://www.bom.gov.au/fwo/IDV60901/IDV60901.94853.json

Data quality

Most of these data are generated automatically and are frequently updated. Quality checks on data are not normally performed. It is possible for incorrect values to appear. Refer to information at About Latest Weather Observations and please check the disclaimer before using these data.